createdAt,value
2022-11-29T00:01:28.410Z,102759.84
2022-11-29T00:03:56.253Z,102772.50
2022-11-29T00:06:27.264Z,102754.53
2022-11-29T00:08:56.257Z,102772.72
2022-11-29T00:11:44.853Z,102721.75
2022-11-29T00:14:15.417Z,102763.03
2022-11-29T00:16:43.880Z,102761.16
2022-11-29T00:19:13.089Z,102762.97
2022-11-29T00:21:41.261Z,102768.28
2022-11-29T00:24:10.155Z,102758.03
2022-11-29T00:26:39.602Z,102759.13
2022-11-29T00:29:07.816Z,102728.84
2022-11-29T00:31:35.877Z,102758.88
2022-11-29T00:34:06.881Z,102757.09
2022-11-29T00:36:35.723Z,102754.06
2022-11-29T00:39:04.786Z,102745.91
2022-11-29T00:41:33.322Z,102691.75
2022-11-29T00:44:02.652Z,102747.91
2022-11-29T00:46:30.718Z,102754.75
2022-11-29T00:48:58.641Z,102759.66
2022-11-29T00:51:26.684Z,102759.69
2022-11-29T00:53:54.764Z,102757.09
2022-11-29T00:56:22.776Z,102762.31
2022-11-29T00:58:51.034Z,102700.00
2022-11-29T01:01:20.918Z,102702.72
2022-11-29T01:03:48.844Z,102750.16
2022-11-29T01:06:19.404Z,102753.59
2022-11-29T01:08:48.165Z,102757.06
2022-11-29T01:11:17.901Z,102754.41
2022-11-29T01:13:46.644Z,102739.94
2022-11-29T01:16:15.613Z,102744.91
2022-11-29T01:18:45.120Z,102749.47
2022-11-29T01:21:15.672Z,102755.94
2022-11-29T01:23:44.557Z,102756.19
2022-11-29T01:26:14.762Z,102754.25
2022-11-29T01:28:43.364Z,102745.59
2022-11-29T01:31:13.069Z,102704.50
2022-11-29T01:33:41.512Z,102743.03
2022-11-29T01:36:13.299Z,102754.31
2022-11-29T01:38:42.429Z,102712.91
2022-11-29T01:41:13.941Z,102742.81
2022-11-29T01:44:00.796Z,102751.50
2022-11-29T01:46:30.566Z,102693.13
2022-11-29T01:49:01.616Z,102749.88
2022-11-29T01:51:32.035Z,102736.03
2022-11-29T01:54:00.107Z,102747.44
2022-11-29T01:56:29.783Z,102741.34
2022-11-29T01:58:58.121Z,102737.75
2022-11-29T02:01:27.291Z,102748.28
2022-11-29T02:03:55.761Z,102736.25
2022-11-29T02:06:24.780Z,102747.44
2022-11-29T02:08:54.216Z,102749.88
2022-11-29T02:11:47.534Z,102743.59
2022-11-29T02:14:31.983Z,102750.81
2022-11-29T02:17:08.586Z,102734.53
2022-11-29T02:19:57.873Z,102745.84
2022-11-29T02:22:31.363Z,102747.28
2022-11-29T02:25:19.072Z,102744.63
2022-11-29T02:28:24.101Z,102744.91
2022-11-29T02:31:28.601Z,102744.25
2022-11-29T02:34:21.469Z,102743.78
2022-11-29T02:37:08.652Z,102741.31
2022-11-29T02:40:03.574Z,102743.81
2022-11-29T02:42:56.895Z,102742.06
2022-11-29T02:45:46.962Z,102750.69
2022-11-29T02:48:44.716Z,102749.00
2022-11-29T02:51:22.598Z,102760.06
2022-11-29T02:53:58.206Z,102751.00
2022-11-29T02:56:33.421Z,102757.41
2022-11-29T02:59:07.221Z,102747.50
2022-11-29T03:01:43.027Z,102753.81
2022-11-29T03:04:19.205Z,102747.81
2022-11-29T03:06:56.828Z,102713.31
2022-11-29T03:09:35.117Z,102745.50
2022-11-29T03:12:13.396Z,102747.81
2022-11-29T03:14:51.560Z,102745.25
2022-11-29T03:17:32.092Z,102749.53
2022-11-29T03:20:14.367Z,102756.28
2022-11-29T03:22:53.858Z,102693.31
2022-11-29T03:25:28.301Z,102749.34
2022-11-29T03:28:02.924Z,102743.56
2022-11-29T03:30:33.670Z,102755.59
2022-11-29T03:33:09.458Z,102741.03
2022-11-29T03:35:42.835Z,102750.91
2022-11-29T03:38:22.415Z,102720.41
2022-11-29T03:40:56.670Z,102750.13
2022-11-29T03:43:31.870Z,102744.97
2022-11-29T03:46:04.004Z,102724.31
2022-11-29T03:48:36.676Z,102738.22
2022-11-29T03:51:11.867Z,102749.00
2022-11-29T03:53:49.645Z,102747.09
2022-11-29T03:56:28.389Z,102748.09
2022-11-29T03:59:05.392Z,102750.25
2022-11-29T04:02:02.389Z,102750.63
2022-11-29T04:05:07.790Z,102749.09
2022-11-29T04:07:56.642Z,102752.06
2022-11-29T04:10:49.485Z,102754.66
2022-11-29T04:13:55.658Z,102752.94
2022-11-29T04:16:57.000Z,102762.31
2022-11-29T04:20:00.488Z,102747.19
2022-11-29T04:22:52.876Z,102709.91
2022-11-29T04:25:49.291Z,102762.34
2022-11-29T04:28:54.074Z,102762.31
2022-11-29T04:31:33.247Z,102762.00
2022-11-29T04:34:42.301Z,102771.22
2022-11-29T04:37:36.761Z,102770.06
2022-11-29T04:40:20.476Z,102763.19
2022-11-29T04:43:03.302Z,102771.88
2022-11-29T04:45:58.256Z,102769.84
2022-11-29T04:48:52.885Z,102768.50
2022-11-29T04:51:31.986Z,102773.41
2022-11-29T04:54:10.059Z,102773.06
2022-11-29T04:56:44.427Z,102769.31
2022-11-29T04:59:21.845Z,102777.59
2022-11-29T05:02:01.258Z,102778.94
2022-11-29T05:04:38.147Z,102751.53
2022-11-29T05:07:13.295Z,102774.50
2022-11-29T05:09:56.493Z,102774.22
2022-11-29T05:12:31.083Z,102772.50
2022-11-29T05:15:32.506Z,102780.66
2022-11-29T05:18:09.025Z,102713.94
2022-11-29T05:20:46.358Z,102757.00
2022-11-29T05:23:31.168Z,102768.38
2022-11-29T05:26:06.237Z,102792.34
2022-11-29T05:28:42.346Z,102758.69
2022-11-29T05:31:29.974Z,102793.09
2022-11-29T05:34:34.664Z,102797.84
2022-11-29T05:37:16.614Z,102789.41
2022-11-29T05:39:58.760Z,102791.69
2022-11-29T05:42:42.589Z,102799.25
2022-11-29T05:45:19.138Z,102805.69
2022-11-29T05:47:55.554Z,102801.72
2022-11-29T05:50:31.913Z,102805.09
2022-11-29T05:53:11.548Z,102808.19
2022-11-29T05:55:47.617Z,102805.22
2022-11-29T05:58:30.269Z,102803.88
2022-11-29T06:01:17.385Z,102812.09
2022-11-29T06:03:56.788Z,102811.28
2022-11-29T06:06:36.137Z,102814.16
2022-11-29T06:09:12.770Z,102812.66
2022-11-29T06:11:45.823Z,102810.97
2022-11-29T06:14:25.659Z,102773.56
2022-11-29T06:17:06.845Z,102819.94
2022-11-29T06:20:09.028Z,102809.16
2022-11-29T06:22:59.457Z,102812.56
2022-11-29T06:25:47.125Z,102816.31
2022-11-29T06:28:29.138Z,102815.53
2022-11-29T06:31:03.543Z,102805.25
2022-11-29T06:33:39.305Z,102822.44
2022-11-29T06:36:18.683Z,102825.03
2022-11-29T06:38:47.156Z,102827.75
2022-11-29T06:41:19.673Z,102784.56
2022-11-29T06:43:48.728Z,102826.59
2022-11-29T06:46:26.822Z,102829.38
2022-11-29T06:49:02.327Z,102828.44
2022-11-29T06:51:41.078Z,102835.34
2022-11-29T06:54:26.683Z,102839.53
2022-11-29T06:57:02.549Z,102834.56
2022-11-29T06:59:46.448Z,102833.66
2022-11-29T07:02:28.604Z,102834.50
2022-11-29T07:05:04.555Z,102840.59
2022-11-29T07:07:35.272Z,102832.69
2022-11-29T07:10:10.661Z,102843.91
2022-11-29T07:12:43.247Z,102836.56
2022-11-29T07:15:16.554Z,102841.44
2022-11-29T07:18:04.757Z,102841.38
2022-11-29T07:20:40.575Z,102839.59
2022-11-29T07:23:18.971Z,102838.25
2022-11-29T07:25:56.156Z,102833.91
2022-11-29T07:28:40.199Z,102839.06
2022-11-29T07:31:12.438Z,102843.91
2022-11-29T07:33:50.438Z,102839.19
2022-11-29T07:36:27.188Z,102845.84
2022-11-29T07:39:04.902Z,102840.09
2022-11-29T07:41:42.345Z,102835.03
2022-11-29T07:44:19.030Z,102845.09
2022-11-29T07:46:47.085Z,102806.09
2022-11-29T07:49:15.245Z,102855.09
2022-11-29T07:51:43.270Z,102849.31
2022-11-29T07:54:22.165Z,102851.13
2022-11-29T07:56:50.129Z,102854.44
2022-11-29T07:59:18.382Z,102848.34
2022-11-29T08:01:46.636Z,102828.78
2022-11-29T08:04:15.029Z,102847.34
2022-11-29T08:06:42.886Z,102846.03
2022-11-29T08:09:12.470Z,102840.25
2022-11-29T08:11:41.002Z,102843.56
2022-11-29T08:14:08.942Z,102850.41
2022-11-29T08:16:38.476Z,102840.38
2022-11-29T08:19:06.471Z,102842.09
2022-11-29T08:21:34.359Z,102830.88
2022-11-29T08:24:02.990Z,102848.13
2022-11-29T08:26:32.289Z,102842.09
2022-11-29T08:29:00.177Z,102849.84
2022-11-29T08:31:28.356Z,102850.59
2022-11-29T08:33:56.209Z,102845.31
2022-11-29T08:36:24.118Z,102856.59
2022-11-29T08:38:57.809Z,102852.09
2022-11-29T08:41:32.033Z,102849.84
2022-11-29T08:44:00.188Z,102851.50
2022-11-29T08:46:48.058Z,102842.09
2022-11-29T08:49:16.137Z,102849.44
2022-11-29T08:51:44.019Z,102853.63
2022-11-29T08:54:10.934Z,102855.84
2022-11-29T08:59:28.652Z,102866.28
2022-11-29T09:01:56.813Z,102861.69
2022-11-29T09:04:24.723Z,102867.09
2022-11-29T09:06:52.614Z,102805.97
2022-11-29T09:09:20.735Z,102869.50
2022-11-29T09:11:50.033Z,102868.69
2022-11-29T09:14:19.323Z,102874.06
2022-11-29T09:16:47.447Z,102871.25
2022-11-29T09:19:15.830Z,102872.34
2022-11-29T09:21:43.709Z,102864.75
2022-11-29T09:24:12.127Z,102863.91
2022-11-29T09:26:41.831Z,102869.78
2022-11-29T09:29:12.539Z,102865.59
2022-11-29T09:31:40.664Z,102854.22
2022-11-29T09:34:08.584Z,102865.31
2022-11-29T09:36:36.441Z,102861.31
2022-11-29T09:39:04.677Z,102861.38
2022-11-29T09:42:03.960Z,102867.22
2022-11-29T09:44:45.539Z,102862.47
2022-11-29T09:47:26.198Z,102867.78
2022-11-29T09:50:02.336Z,102860.00
2022-11-29T09:52:41.640Z,102866.69
2022-11-29T09:55:36.271Z,102866.84
2022-11-29T09:58:06.962Z,102845.31
2022-11-29T10:00:43.662Z,102809.81
2022-11-29T10:03:16.993Z,102876.22
2022-11-29T10:05:50.336Z,102861.44
2022-11-29T10:08:24.500Z,102864.72
2022-11-29T10:10:57.550Z,102866.91
2022-11-29T10:13:29.837Z,102871.88
2022-11-29T10:16:04.945Z,102837.75
2022-11-29T10:18:36.337Z,102869.59
2022-11-29T10:21:44.804Z,102870.28
2022-11-29T10:24:17.910Z,102836.97
2022-11-29T10:26:46.084Z,102871.28
2022-11-29T10:29:16.357Z,102877.56
2022-11-29T10:31:49.776Z,102804.34
2022-11-29T10:34:20.005Z,102874.91
2022-11-29T10:36:50.657Z,102873.34
2022-11-29T10:39:24.311Z,102879.16
2022-11-29T10:41:56.908Z,102834.44
2022-11-29T10:44:25.889Z,102821.38
2022-11-29T10:46:55.692Z,102875.66
2022-11-29T10:49:29.317Z,102871.38
2022-11-29T10:51:57.373Z,102879.34
2022-11-29T10:54:38.296Z,102827.94
2022-11-29T10:57:14.953Z,102878.84
2022-11-29T10:59:43.249Z,102851.91
2022-11-29T11:02:20.632Z,102874.47
2022-11-29T11:04:50.253Z,102872.81
2022-11-29T11:07:25.396Z,102877.00
2022-11-29T11:09:57.144Z,102876.09
2022-11-29T11:12:28.424Z,102880.41
2022-11-29T11:15:16.216Z,102878.81
2022-11-29T11:17:58.585Z,102841.00
2022-11-29T11:20:30.345Z,102870.19
2022-11-29T11:23:00.702Z,102876.34
2022-11-29T11:25:30.984Z,102837.56
2022-11-29T11:28:11.884Z,102837.44
2022-11-29T11:30:39.947Z,102874.47
2022-11-29T11:33:18.524Z,102871.88
2022-11-29T11:36:01.139Z,102880.38
2022-11-29T11:38:29.371Z,102886.47
2022-11-29T11:41:16.598Z,102883.84
2022-11-29T11:43:51.099Z,102879.41
2022-11-29T11:46:19.130Z,102881.19
2022-11-29T11:48:48.839Z,102878.31
2022-11-29T11:51:25.310Z,102876.00
2022-11-29T11:53:57.934Z,102879.59
2022-11-29T11:56:27.969Z,102818.22
2022-11-29T11:58:58.789Z,102874.88
2022-11-29T12:01:30.873Z,102874.81
2022-11-29T12:04:06.877Z,102880.59
2022-11-29T12:06:53.554Z,102883.22
2022-11-29T12:09:29.401Z,102886.75
2022-11-29T12:12:08.097Z,102883.03
2022-11-29T12:14:46.021Z,102840.50
2022-11-29T12:17:21.817Z,102881.13
2022-11-29T12:20:05.495Z,102879.41
2022-11-29T12:22:41.522Z,102879.25
2022-11-29T12:25:18.382Z,102842.00
2022-11-29T12:27:46.392Z,102884.44
2022-11-29T12:30:16.122Z,102890.09
2022-11-29T12:33:02.656Z,102891.69
2022-11-29T12:35:47.303Z,102885.72
2022-11-29T12:38:29.605Z,102850.34
2022-11-29T12:41:07.166Z,102885.50
2022-11-29T12:43:46.217Z,102884.75
2022-11-29T12:46:21.541Z,102889.88
2022-11-29T12:49:00.281Z,102884.09
2022-11-29T12:51:37.938Z,102880.38
2022-11-29T12:54:24.658Z,102888.91
2022-11-29T12:57:00.514Z,102890.72
2022-11-29T12:59:42.183Z,102887.25
2022-11-29T13:02:33.436Z,102886.34
2022-11-29T13:05:10.365Z,102893.84
2022-11-29T13:07:47.916Z,102891.50
2022-11-29T13:10:35.854Z,102893.00
2022-11-29T13:13:13.279Z,102886.19
2022-11-29T13:15:47.077Z,102826.44
2022-11-29T13:18:21.380Z,102885.19
2022-11-29T13:20:57.211Z,102888.53
2022-11-29T13:23:45.989Z,102881.63
2022-11-29T13:26:23.516Z,102883.03
2022-11-29T13:28:51.936Z,102888.97
2022-11-29T13:31:21.782Z,102886.94
2022-11-29T13:34:01.128Z,102888.56
2022-11-29T13:36:45.451Z,102885.78
2022-11-29T13:39:29.263Z,102883.97
2022-11-29T13:42:20.861Z,102885.69
2022-11-29T13:45:00.058Z,102887.56
2022-11-29T13:47:28.289Z,102890.03
2022-11-29T13:49:58.858Z,102883.75
2022-11-29T13:52:38.046Z,102892.19
2022-11-29T13:55:31.259Z,102886.75
2022-11-29T13:58:22.241Z,102892.47
2022-11-29T14:00:52.120Z,102896.03
2022-11-29T14:03:35.974Z,102895.59
2022-11-29T14:06:33.306Z,102894.22
2022-11-29T14:09:28.867Z,102894.09
2022-11-29T14:12:04.354Z,102894.09
2022-11-29T14:14:38.460Z,102848.38
2022-11-29T14:17:27.506Z,102894.19
2022-11-29T14:20:33.945Z,102899.22
2022-11-29T14:23:18.181Z,102901.88
2022-11-29T14:26:21.537Z,102900.78
2022-11-29T14:28:53.077Z,102896.25
2022-11-29T14:31:53.370Z,102899.38
2022-11-29T14:34:35.366Z,102896.22
2022-11-29T14:37:17.246Z,102894.66
2022-11-29T14:39:49.436Z,102900.72
2022-11-29T14:42:20.402Z,102896.31
2022-11-29T14:44:53.420Z,102895.22
2022-11-29T14:47:31.890Z,102858.72
2022-11-29T14:50:03.766Z,102906.16
2022-11-29T14:52:39.050Z,102893.41
2022-11-29T14:55:29.947Z,102896.47
2022-11-29T14:58:22.290Z,102897.38
2022-11-29T15:01:08.102Z,102894.66
2022-11-29T15:03:43.807Z,102898.16
2022-11-29T15:06:16.735Z,102903.47
2022-11-29T15:08:55.365Z,102904.66
2022-11-29T15:11:48.190Z,102903.72
2022-11-29T15:14:31.419Z,102904.56
2022-11-29T15:17:12.467Z,102899.34
2022-11-29T15:19:57.026Z,102904.44
2022-11-29T15:22:29.652Z,102906.13
2022-11-29T15:25:01.291Z,102901.13
2022-11-29T15:27:30.841Z,102907.88
2022-11-29T15:29:59.961Z,102870.75
2022-11-29T15:32:31.444Z,102903.50
2022-11-29T15:35:00.301Z,102895.69
2022-11-29T15:38:00.416Z,102902.59
2022-11-29T15:40:35.485Z,102894.91
2022-11-29T15:43:20.585Z,102907.00
2022-11-29T15:45:49.999Z,102903.16
2022-11-29T15:48:21.252Z,102900.72
2022-11-29T15:50:56.311Z,102899.94
2022-11-29T15:53:29.743Z,102904.53
2022-11-29T15:55:59.773Z,102909.63
2022-11-29T15:58:32.468Z,102906.13
2022-11-29T16:01:02.462Z,102906.78
2022-11-29T16:03:34.078Z,102899.13
2022-11-29T16:06:08.091Z,102903.50
2022-11-29T16:08:41.705Z,102856.09
2022-11-29T16:11:17.245Z,102902.84
2022-11-29T16:14:04.053Z,102902.72
2022-11-29T16:16:35.626Z,102907.81
2022-11-29T16:19:11.866Z,102904.41
2022-11-29T16:21:40.104Z,102894.22
2022-11-29T16:24:20.550Z,102906.84
2022-11-29T16:26:50.733Z,102913.78
2022-11-29T16:29:24.727Z,102905.88
2022-11-29T16:31:53.527Z,102907.56
2022-11-29T16:34:27.246Z,102860.28
2022-11-29T16:37:03.233Z,102911.06
2022-11-29T16:39:32.088Z,102921.50
2022-11-29T16:42:15.967Z,102918.09
2022-11-29T16:45:30.345Z,102923.63
2022-11-29T16:47:59.735Z,102916.16
2022-11-29T16:50:29.410Z,102921.41
2022-11-29T16:52:59.176Z,102924.78
2022-11-29T16:55:27.393Z,102929.13
2022-11-29T16:57:55.313Z,102918.16
2022-11-29T17:00:32.990Z,102920.53
2022-11-29T17:03:01.351Z,102922.22
2022-11-29T17:05:29.522Z,102926.50
2022-11-29T17:07:57.778Z,102920.59
2022-11-29T17:10:26.653Z,102921.16
2022-11-29T17:12:54.602Z,102923.94
2022-11-29T17:15:22.554Z,102918.00
2022-11-29T17:17:51.778Z,102915.38
2022-11-29T17:20:19.827Z,102918.09
2022-11-29T17:22:47.891Z,102917.38
2022-11-29T17:25:15.759Z,102908.59
2022-11-29T17:27:43.675Z,102915.50
2022-11-29T17:30:12.601Z,102912.09
2022-11-29T17:32:40.926Z,102910.59
2022-11-29T17:35:10.645Z,102910.50
2022-11-29T17:37:38.627Z,102907.97
2022-11-29T17:40:07.633Z,102901.94
2022-11-29T17:42:35.622Z,102907.13
2022-11-29T17:45:03.781Z,102903.69
2022-11-29T17:47:33.511Z,102918.94
2022-11-29T17:50:01.423Z,102912.13
2022-11-29T17:52:30.750Z,102895.88
2022-11-29T17:54:58.695Z,102877.81
2022-11-29T17:57:26.678Z,102914.88
2022-11-29T17:59:54.711Z,102898.47
2022-11-29T18:02:22.641Z,102919.03
2022-11-29T18:04:50.706Z,102911.44
2022-11-29T18:07:18.787Z,102917.50
2022-11-29T18:09:49.044Z,102921.88
2022-11-29T18:12:20.184Z,102926.06
2022-11-29T18:14:50.167Z,102925.22
2022-11-29T18:17:18.080Z,102922.66
2022-11-29T18:19:46.314Z,102917.50
2022-11-29T18:22:14.362Z,102929.41
2022-11-29T18:24:44.157Z,102932.88
2022-11-29T18:27:13.732Z,102937.03
2022-11-29T18:29:41.635Z,102932.03
2022-11-29T18:32:09.585Z,102930.41
2022-11-29T18:34:37.828Z,102932.84
2022-11-29T18:37:05.685Z,102929.56
2022-11-29T18:39:34.205Z,102927.78
2022-11-29T18:42:02.233Z,102931.25
2022-11-29T18:44:31.488Z,102930.41
2022-11-29T18:46:59.490Z,102943.22
2022-11-29T18:49:27.563Z,102937.28
2022-11-29T18:51:55.425Z,102932.22
2022-11-29T18:54:23.490Z,102937.28
2022-11-29T18:56:52.025Z,102936.53
2022-11-29T18:59:19.947Z,102945.97
2022-11-29T19:01:49.980Z,102914.91
2022-11-29T19:04:20.548Z,102948.66
2022-11-29T19:06:48.617Z,102943.41
2022-11-29T19:09:18.498Z,102947.78
2022-11-29T19:11:46.472Z,102934.91
2022-11-29T19:14:14.651Z,102946.97
2022-11-29T19:16:44.359Z,102950.28
2022-11-29T19:19:14.293Z,102946.00
2022-11-29T19:21:42.485Z,102960.50
2022-11-29T19:24:14.980Z,102956.22
2022-11-29T19:26:45.667Z,102964.00
2022-11-29T19:29:13.905Z,102963.91
2022-11-29T19:31:42.626Z,102945.78
2022-11-29T19:34:11.127Z,102964.88
2022-11-29T19:36:43.318Z,102976.47
2022-11-29T19:39:13.315Z,102945.69
2022-11-29T19:41:43.321Z,102980.22
2022-11-29T19:44:12.077Z,102974.38
2022-11-29T19:46:42.198Z,102970.94
2022-11-29T19:49:11.071Z,102973.38
2022-11-29T19:51:41.318Z,102981.41
2022-11-29T19:54:11.073Z,102977.97
2022-11-29T19:56:39.401Z,102982.03
2022-11-29T19:59:08.248Z,102992.47
2022-11-29T20:01:40.697Z,102983.66
2022-11-29T20:04:10.544Z,102991.34
2022-11-29T20:06:41.248Z,102983.75
2022-11-29T20:09:09.323Z,102989.75
2022-11-29T20:11:37.462Z,102994.72
2022-11-29T20:14:07.011Z,102990.25
2022-11-29T20:16:35.153Z,102996.53
2022-11-29T20:19:03.451Z,103000.63
2022-11-29T20:21:32.895Z,102991.09
2022-11-29T20:24:03.496Z,102996.84
2022-11-29T20:26:32.091Z,103012.06
2022-11-29T20:29:01.855Z,103004.31
2022-11-29T20:31:30.751Z,103006.84
2022-11-29T20:33:59.111Z,103002.09
2022-11-29T20:36:38.882Z,103004.03
2022-11-29T20:39:18.116Z,103011.69
2022-11-29T20:41:54.814Z,103010.00
2022-11-29T20:44:38.107Z,102993.47
2022-11-29T20:47:15.098Z,103006.53
2022-11-29T20:49:43.575Z,103006.56
2022-11-29T20:52:21.313Z,103002.34
2022-11-29T20:54:59.278Z,103013.31
2022-11-29T20:57:27.361Z,103014.53
2022-11-29T20:59:55.353Z,103014.66
2022-11-29T21:02:23.528Z,103014.69
2022-11-29T21:05:19.294Z,102982.88
2022-11-29T21:07:47.318Z,102995.81
2022-11-29T21:10:17.367Z,103022.28
2022-11-29T21:12:46.814Z,103007.63
2022-11-29T21:15:16.485Z,103024.03
2022-11-29T21:17:45.627Z,102953.31
2022-11-29T21:20:19.587Z,103016.50
2022-11-29T21:22:54.988Z,103021.69
2022-11-29T21:25:37.064Z,103018.19
2022-11-29T21:28:09.683Z,103027.56
2022-11-29T21:30:46.969Z,103021.63
2022-11-29T21:33:15.342Z,103021.50
2022-11-29T21:35:43.469Z,103021.56
2022-11-29T21:38:24.290Z,103020.41
2022-11-29T21:40:53.748Z,103029.41
2022-11-29T21:43:32.738Z,103032.59
2022-11-29T21:46:09.775Z,103019.69
2022-11-29T21:48:38.051Z,103032.69
2022-11-29T21:51:07.614Z,103029.16
2022-11-29T21:53:36.997Z,103028.25
2022-11-29T21:56:08.489Z,103035.88
2022-11-29T21:58:38.530Z,103036.84
2022-11-29T22:01:09.224Z,103035.16
2022-11-29T22:03:37.174Z,103023.94
2022-11-29T22:06:06.766Z,103034.22
2022-11-29T22:08:36.149Z,103003.03
2022-11-29T22:11:07.824Z,103036.00
2022-11-29T22:13:36.191Z,103020.50
2022-11-29T22:16:09.407Z,103028.13
2022-11-29T22:18:38.234Z,103028.13
2022-11-29T22:21:08.283Z,103033.34
2022-11-29T22:23:36.224Z,103040.16
2022-11-29T22:26:07.460Z,103003.91
2022-11-29T22:28:36.229Z,103034.25
2022-11-29T22:31:06.330Z,103023.63
2022-11-29T22:33:34.817Z,103026.91
2022-11-29T22:36:07.594Z,103033.97
2022-11-29T22:38:36.405Z,103029.56
2022-11-29T22:41:07.173Z,103022.56
2022-11-29T22:43:35.726Z,103018.38
2022-11-29T22:46:08.007Z,103033.59
2022-11-29T22:48:38.854Z,103039.41
2022-11-29T22:51:09.121Z,103037.09
2022-11-29T22:53:38.001Z,103039.91
2022-11-29T22:56:09.383Z,103032.91
2022-11-29T22:58:37.759Z,103032.06
2022-11-29T23:01:08.094Z,103041.31
2022-11-29T23:03:36.673Z,103020.09
2022-11-29T23:06:06.249Z,103040.06
2022-11-29T23:08:34.991Z,103031.31
2022-11-29T23:11:04.946Z,103036.75
2022-11-29T23:13:36.321Z,103034.25
2022-11-29T23:16:05.442Z,103037.50
2022-11-29T23:18:33.665Z,103033.25
2022-11-29T23:21:02.855Z,103039.09
2022-11-29T23:23:31.699Z,103034.75
2022-11-29T23:26:00.159Z,102978.84
2022-11-29T23:28:29.498Z,102995.28
2022-11-29T23:30:59.910Z,103030.69
2022-11-29T23:33:28.109Z,103031.44
2022-11-29T23:36:01.870Z,102973.41
2022-11-29T23:38:30.042Z,102988.75
2022-11-29T23:40:58.425Z,103039.63
2022-11-29T23:43:29.807Z,102981.88
2022-11-29T23:45:59.440Z,103035.28
2022-11-29T23:48:27.527Z,103039.59
2022-11-29T23:50:55.458Z,103027.75
2022-11-29T23:53:23.661Z,103039.66
2022-11-29T23:55:57.582Z,103002.38
2022-11-29T23:58:25.689Z,103030.97
